Flight Track Log - Related Links

Times and Time Zones

All times are in EDT time to prevent confusion due to time zone crossing. See the KAL1917 flight status page for this flight to view local times or setup timezone preferences in your user account.

Time Position Orientation Groundspeed Altitude Reporting Facility
EDT Latitude Longitude Course Direction KTS MPH feet Rate Location/Type
Wed 02:33:00 AM 35.3709 126.5879 182° South  Level Estimated
Wed 02:34:00 AM 35.2821 126.5833 182° South  Level Estimated
Wed 02:35:00 AM 35.1933 126.5787 182° South  Level Estimated
Wed 02:36:00 AM 35.1045 126.5741 182° South  Level Estimated
Wed 02:37:00 AM 35.0157 126.5695 182° South  Level Estimated
Wed 02:38:00 AM 34.9269 126.5649 182° South  Level Estimated
Wed 02:39:00 AM 34.8470 126.5608 182° South  Level Estimated
Wed 02:40:00 AM 34.7670 126.5566 182° South  Level Estimated
Wed 02:41:00 AM 34.6871 126.5525 182° South  Level Estimated
Wed 02:42:00 AM 34.6072 126.5484 182° South  Level Estimated
Wed 02:43:00 AM 34.5272 126.5443 182° South  Level Estimated
Wed 02:44:00 AM 34.4473 126.5403 182° South  Level Estimated
Wed 02:45:00 AM 34.3674 126.5362 182° South  Level Estimated
Wed 02:46:00 AM 34.2874 126.5321 182° South  Level Estimated
Wed 02:47:00 AM 34.2075 126.5281 182° South  Level Estimated
Wed 02:48:00 AM 34.1276 126.5240 182° South  Level Estimated
Wed 02:49:00 AM 34.0477 126.5200 182° South  Level Estimated
Wed 02:50:00 AM 33.9677 126.5159 182° South  Level Estimated
Wed 02:51:00 AM 33.8878 126.5119 182° South  Level Estimated
Wed 02:52:00 AM 33.8079 126.5079 182° South  Level Estimated
Wed 02:53:00 AM 33.7279 126.5039 182° South  Level Estimated
Wed 02:54:00 AM 33.6480 126.4999 182° South  Level Estimated
Wed 02:55:00 AM 33.5681 126.4959 182° South  Level Estimated
Wed 02:56:00 AM 33.5113 126.4930 182° South  Level Estimated
Wed 02:57:00 AM 33.5113 126.4930 North  Level Estimated
Wed 02:58:00 AM 33.5113 126.4930 North  Level Estimated
Wed 02:59:00 AM 33.5113 126.4930 North  Level Estimated
Wed 03:00:00 AM 33.5113 126.4930 North  Level Estimated
Wed 03:01:00 AM 33.5113 126.4930 North  Level Estimated
Wed 03:02:00 AM 33.5113 126.4930 North  Level Estimated
Wed 03:03:00 AM 33.5113 126.4930 North  Level Estimated
Wed 03:04:00 AM 33.5113 126.4930 North  Level Estimated

Login

Don't have an account? Register now (free) for customized features, flight alerts, and more!